Time;durP1;ratioP1;P1;durP2;ratioP2;P2;SDS_P1;SDS_P2;PMS_P1;PMS_P2;Temp;Humidity;BMP_temperature;BMP_pressure;BME280_temperature;BME280_humidity;BME280_pressure;Samples;Min_cycle;Max_cycle;Signal;HPM_P1;HPM_P2
2021/12/10 00:00:15;;;;;;;30.93;13.13;;;;;;;;;;4953152;28;20023;-77
2021/12/10 00:02:46;;;;;;;25.27;11.63;;;;;;;;;;4954605;28;20039;-77
2021/12/10 00:05:22;;;;;;;25.70;12.40;;;;;;;;;;4954509;28;20065;-78
2021/12/10 00:07:49;;;;;;;19.23;9.70;;;;;;;;;;4953066;28;20046;-77
2021/12/10 00:10:20;;;;;;;20.90;9.07;;;;;;;;;;4969087;28;20484;-76
2021/12/10 00:12:50;;;;;;;18.83;9.93;;;;;;;;;;4954287;28;20542;-76
2021/12/10 00:15:22;;;;;;;25.10;10.60;;;;;;;;;;4954016;28;20400;-78
2021/12/10 00:17:49;;;;;;;21.73;9.80;;;;;;;;;;4954069;28;20031;-77
2021/12/10 00:20:16;;;;;;;19.40;9.23;;;;;;;;;;4952512;28;20038;-76
2021/12/10 00:22:50;;;;;;;22.70;10.10;;;;;;;;;;4968920;28;20563;-77
2021/12/10 00:25:20;;;;;;;18.53;9.07;;;;;;;;;;4952579;28;20038;-79
2021/12/10 00:27:49;;;;;;;18.50;9.27;;;;;;;;;;4954069;28;20082;-77
2021/12/10 00:30:43;;;;;;;22.87;10.30;;;;;;;;;;4953859;28;20035;-76
2021/12/10 00:33:20;;;;;;;18.90;9.37;;;;;;;;;;4953855;28;20034;-78
2021/12/10 00:35:47;;;;;;;17.87;9.77;;;;;;;;;;4968598;28;20047;-75
2021/12/10 00:38:13;;;;;;;21.87;10.03;;;;;;;;;;4953636;28;20479;-76
2021/12/10 00:40:39;;;;;;;17.80;8.47;;;;;;;;;;4953873;28;20094;-77
2021/12/10 00:43:05;;;;;;;13.17;7.33;;;;;;;;;;4952299;29;20094;-77
2021/12/10 00:45:31;;;;;;;17.90;8.93;;;;;;;;;;4952046;28;20111;-76
2021/12/10 00:47:57;;;;;;;16.43;9.47;;;;;;;;;;4953347;28;20027;-79
2021/12/10 00:50:27;;;;;;;18.97;8.90;;;;;;;;;;4953514;28;20035;-76
2021/12/10 00:52:54;;;;;;;16.17;8.23;;;;;;;;;;4954159;28;20460;-77
2021/12/10 00:55:21;;;;;;;20.00;8.70;;;;;;;;;;4952427;28;20098;-75
2021/12/10 00:57:47;;;;;;;17.97;9.13;;;;;;;;;;4953555;28;20476;-76
2021/12/10 01:00:26;;;;;;;14.60;7.70;;;;;;;;;;4953853;28;20029;-77
2021/12/10 01:02:51;;;;;;;17.20;8.77;;;;;;;;;;4952229;29;20098;-79
2021/12/10 01:05:19;;;;;;;16.80;8.27;;;;;;;;;;4953266;28;20480;-77
2021/12/10 01:07:45;;;;;;;14.00;8.33;;;;;;;;;;4952952;28;20035;-78
2021/12/10 01:10:20;;;;;;;16.27;8.30;;;;;;;;;;4950420;29;20126;-77
2021/12/10 01:12:49;;;;;;;16.17;8.40;;;;;;;;;;4952914;28;20027;-75
2021/12/10 01:24:16;;;;;;;20.13;9.63;;;;;;;;;;4953299;29;20113;-79
2021/12/10 01:29:12;;;;;;;18.37;8.27;;;;;;;;;;4953024;28;20041;-74
2021/12/10 01:31:38;;;;;;;18.43;8.67;;;;;;;;;;4951340;29;20057;-73
2021/12/10 01:34:05;;;;;;;20.40;8.83;;;;;;;;;;4951525;29;20078;-78
2021/12/10 01:36:31;;;;;;;17.33;8.63;;;;;;;;;;4967375;28;20114;-78
2021/12/10 01:38:56;;;;;;;18.87;9.00;;;;;;;;;;4952672;28;20035;-77
2021/12/10 01:41:26;;;;;;;18.67;8.60;;;;;;;;;;4952818;28;20097;-77
2021/12/10 01:43:53;;;;;;;17.93;8.93;;;;;;;;;;4951649;29;20094;-78
2021/12/10 01:46:27;;;;;;;18.60;9.20;;;;;;;;;;4951160;29;20035;-78
2021/12/10 01:48:58;;;;;;;17.73;9.50;;;;;;;;;;4952728;28;20038;-76
2021/12/10 01:51:27;;;;;;;21.20;10.37;;;;;;;;;;4951944;28;20550;-77
2021/12/10 01:53:58;;;;;;;15.47;8.67;;;;;;;;;;4952817;28;20087;-79
2021/12/10 01:56:30;;;;;;;23.40;9.03;;;;;;;;;;4967660;28;20090;-78
2021/12/10 01:58:56;;;;;;;25.27;14.20;;;;;;;;;;4952720;28;20039;-77
2021/12/10 02:01:44;;;;;;;25.23;11.23;;;;;;;;;;4952921;28;20098;-78
2021/12/10 02:04:12;;;;;;;18.60;9.53;;;;;;;;;;4967176;28;20035;-78
2021/12/10 02:06:39;;;;;;;19.57;10.53;;;;;;;;;;4952296;28;20027;-76
2021/12/10 02:09:06;;;;;;;21.43;10.00;;;;;;;;;;4952294;28;20051;-77
2021/12/10 02:11:32;;;;;;;20.73;10.60;;;;;;;;;;4951026;28;20062;-76
2021/12/10 02:13:58;;;;;;;25.60;10.97;;;;;;;;;;4951461;28;20055;-79
2021/12/10 02:16:24;;;;;;;22.40;10.10;;;;;;;;;;4951245;28;20031;-78
2021/12/10 02:18:49;;;;;;;21.40;10.20;;;;;;;;;;4951205;28;20527;-77
2021/12/10 02:21:22;;;;;;;24.13;10.80;;;;;;;;;;4952262;28;20117;-78
2021/12/10 02:23:54;;;;;;;;;;;;;;;;;;4952543;28;20058;-78
2021/12/10 02:26:21;;;;;;;16.43;8.17;;;;;;;;;;4952217;28;19921;-77
2021/12/10 02:28:47;;;;;;;20.40;10.03;;;;;;;;;;4950294;29;20062;-76
2021/12/10 02:31:14;;;;;;;25.00;10.70;;;;;;;;;;4950831;28;20475;-78
2021/12/10 02:33:41;;;;;;;20.63;10.27;;;;;;;;;;4952023;28;20474;-78
2021/12/10 02:36:11;;;;;;;22.73;10.80;;;;;;;;;;4966803;28;20058;-76
2021/12/10 02:38:43;;;;;;;28.23;11.37;;;;;;;;;;4950359;28;20126;-76
2021/12/10 02:41:09;;;;;;;25.27;12.18;;;;;;;;;;4952051;28;20337;-78
2021/12/10 02:43:36;;;;;;;19.93;10.27;;;;;;;;;;4951607;28;20062;-77
2021/12/10 02:46:02;;;;;;;25.43;11.33;;;;;;;;;;4951411;28;20035;-74
2021/12/10 02:48:28;;;;;;;22.57;10.57;;;;;;;;;;4951971;28;20030;-74
2021/12/10 02:50:55;;;;;;;26.80;11.33;;;;;;;;;;4950460;28;20420;-73
2021/12/10 02:53:26;;;;;;;22.63;11.53;;;;;;;;;;4951643;28;20154;-74
2021/12/10 02:55:53;;;;;;;22.45;10.02;;;;;;;;;;4966361;28;20034;-73
2021/12/10 02:58:19;;;;;;;19.93;10.03;;;;;;;;;;4951320;28;20031;-73
2021/12/10 03:00:55;;;;;;;27.03;10.77;;;;;;;;;;4950245;28;20086;-73
2021/12/10 03:03:21;;;;;;;25.20;10.63;;;;;;;;;;4951474;28;20090;-73
2021/12/10 03:05:47;;;;;;;24.60;10.43;;;;;;;;;;4954031;28;20035;-74
2021/12/10 03:08:13;;;;;;;25.60;10.50;;;;;;;;;;4953993;28;20019;-74
2021/12/10 03:10:40;;;;;;;24.37;10.57;;;;;;;;;;4955051;28;20031;-73
2021/12/10 03:13:07;;;;;;;24.63;11.30;;;;;;;;;;4955348;28;20188;-73
2021/12/10 03:15:35;;;;;;;23.47;11.20;;;;;;;;;;4955084;28;20027;-73
2021/12/10 03:18:02;;;;;;;25.63;11.00;;;;;;;;;;4955271;29;20491;-73
2021/12/10 03:20:29;;;;;;;24.90;10.20;;;;;;;;;;4955200;28;20027;-73
2021/12/10 03:22:56;;;;;;;30.87;13.10;;;;;;;;;;4955151;28;20027;-73
2021/12/10 03:25:22;;;;;;;27.70;10.87;;;;;;;;;;4955041;28;20035;-73
2021/12/10 03:27:48;;;;;;;23.17;10.73;;;;;;;;;;4955083;28;20035;-72
2021/12/10 03:30:20;;;;;;;24.30;10.77;;;;;;;;;;4953583;28;20023;-73
2021/12/10 03:32:46;;;;;;;25.33;10.38;;;;;;;;;;4954595;28;20484;-73
2021/12/10 03:35:28;;;;;;;24.60;11.73;;;;;;;;;;4953282;28;20470;-73
2021/12/10 03:37:55;;;;;;;17.35;8.82;;;;;;;;;;4953633;28;20027;-72
2021/12/10 03:40:21;;;;;;;23.80;10.60;;;;;;;;;;4954799;28;20034;-73
2021/12/10 03:42:50;;;;;;;19.73;10.23;;;;;;;;;;4952969;28;20126;-76
2021/12/10 03:45:17;;;;;;;28.53;10.50;;;;;;;;;;4954816;28;20067;-74
2021/12/10 03:47:44;;;;;;;21.67;11.10;;;;;;;;;;4953100;28;20045;-75
2021/12/10 03:50:12;;;;;;;18.47;9.30;;;;;;;;;;4958238;28;20024;-74
2021/12/10 03:52:38;;;;;;;22.40;9.97;;;;;;;;;;4959745;28;20023;-74
2021/12/10 03:55:06;;;;;;;24.60;10.33;;;;;;;;;;4955785;28;20023;-74
2021/12/10 03:57:32;;;;;;;28.83;9.97;;;;;;;;;;4953577;28;20035;-74
2021/12/10 03:59:57;;;;;;;24.47;10.03;;;;;;;;;;4954048;28;20024;-75
2021/12/10 04:02:23;;;;;;;22.50;10.30;;;;;;;;;;4954777;28;20034;-78
2021/12/10 04:04:51;;;;;;;23.40;9.53;;;;;;;;;;4954599;28;20392;-76
2021/12/10 04:07:20;;;;;;;23.77;10.30;;;;;;;;;;4955052;28;20035;-77
2021/12/10 04:09:47;;;;;;;18.83;9.07;;;;;;;;;;4955145;28;20031;-76
2021/12/10 04:12:13;;;;;;;22.43;9.70;;;;;;;;;;4955080;28;20027;-77
2021/12/10 04:14:40;;;;;;;19.80;9.17;;;;;;;;;;4952133;28;20035;-76
2021/12/10 04:17:06;;;;;;;20.37;9.37;;;;;;;;;;4968782;28;20539;-77
2021/12/10 04:19:35;;;;;;;20.60;9.30;;;;;;;;;;4968750;28;20043;-76
2021/12/10 04:22:02;;;;;;;21.47;9.33;;;;;;;;;;4952659;28;20028;-79
2021/12/10 04:24:31;;;;;;;21.77;10.33;;;;;;;;;;4953936;28;20031;-78
2021/12/10 04:26:58;;;;;;;25.13;9.53;;;;;;;;;;4952499;28;20417;-77
2021/12/10 04:29:24;;;;;;;23.87;10.53;;;;;;;;;;4952487;29;20433;-78
2021/12/10 04:31:53;;;;;;;19.20;8.87;;;;;;;;;;4954000;28;20038;-77
2021/12/10 04:34:21;;;;;;;16.80;8.93;;;;;;;;;;4953810;28;20069;-75
2021/12/10 04:36:48;;;;;;;22.77;9.83;;;;;;;;;;4953731;28;20051;-76
2021/12/10 04:39:14;;;;;;;26.23;11.47;;;;;;;;;;4953690;28;20032;-78
2021/12/10 04:41:39;;;;;;;18.57;9.77;;;;;;;;;;4952525;28;20395;-77
2021/12/10 04:44:05;;;;;;;20.10;8.77;;;;;;;;;;4953780;28;20457;-79
2021/12/10 04:46:31;;;;;;;20.20;8.93;;;;;;;;;;4953789;28;20034;-79
2021/12/10 04:49:00;;;;;;;15.67;8.20;;;;;;;;;;4968392;28;20046;-79
2021/12/10 04:51:35;;;;;;;20.37;8.60;;;;;;;;;;4953610;28;20337;-76
2021/12/10 04:54:02;;;;;;;18.17;8.47;;;;;;;;;;4953566;28;20065;-77
2021/12/10 04:56:29;;;;;;;20.13;8.33;;;;;;;;;;4951995;29;20028;-78
2021/12/10 04:58:55;;;;;;;20.57;8.73;;;;;;;;;;4953318;28;20046;-77
2021/12/10 05:01:21;;;;;;;21.37;8.60;;;;;;;;;;4951974;29;20031;-79
2021/12/10 05:03:47;;;;;;;25.97;10.03;;;;;;;;;;4951957;29;20086;-78
2021/12/10 05:06:12;;;;;;;24.67;9.83;;;;;;;;;;4952156;28;20031;-79
2021/12/10 05:08:39;;;;;;;19.77;9.40;;;;;;;;;;4951928;29;20114;-76
2021/12/10 05:11:08;;;;;;;16.60;8.73;;;;;;;;;;4953530;28;20049;-78
2021/12/10 05:13:35;;;;;;;18.50;8.53;;;;;;;;;;4951920;29;20063;-79
2021/12/10 05:16:02;;;;;;;18.03;8.20;;;;;;;;;;4953489;28;20379;-78
2021/12/10 05:18:35;;;;;;;23.17;10.13;;;;;;;;;;4968221;28;20027;-78
2021/12/10 05:21:01;;;;;;;18.43;8.53;;;;;;;;;;4952096;28;20038;-78
2021/12/10 05:23:27;;;;;;;21.30;8.70;;;;;;;;;;4967782;28;20050;-77
2021/12/10 05:25:53;;;;;;;17.93;8.40;;;;;;;;;;4952572;28;20043;-78
2021/12/10 05:28:18;;;;;;;22.17;8.93;;;;;;;;;;4952851;28;20019;-75
2021/12/10 05:30:47;;;;;;;18.93;9.10;;;;;;;;;;4953126;28;20089;-77
2021/12/10 05:33:17;;;;;;;24.03;8.40;;;;;;;;;;4952854;28;20058;-76
2021/12/10 05:35:44;;;;;;;19.30;8.47;;;;;;;;;;4952545;28;20047;-78
2021/12/10 05:38:09;;;;;;;20.07;9.20;;;;;;;;;;4953120;28;20035;-79
2021/12/10 05:40:35;;;;;;;18.73;8.27;;;;;;;;;;4952547;28;20037;-78
2021/12/10 05:43:01;;;;;;;23.53;9.13;;;;;;;;;;4952768;28;20062;-79
2021/12/10 05:45:27;;;;;;;21.40;8.70;;;;;;;;;;4951212;29;20034;-76
2021/12/10 05:47:54;;;;;;;20.00;8.30;;;;;;;;;;4952306;28;20255;-77
2021/12/10 05:50:23;;;;;;;26.00;8.87;;;;;;;;;;4967169;28;20074;-79
2021/12/10 05:52:49;;;;;;;19.67;9.87;;;;;;;;;;4950932;29;20535;-77
2021/12/10 05:55:15;;;;;;;18.07;7.90;;;;;;;;;;4967421;28;20027;-77
2021/12/10 05:57:41;;;;;;;17.00;8.17;;;;;;;;;;4952734;28;20070;-79
2021/12/10 06:00:11;;;;;;;21.63;8.70;;;;;;;;;;4967296;28;20055;-79
2021/12/10 06:02:37;;;;;;;19.70;8.53;;;;;;;;;;4968523;28;20102;-76
2021/12/10 06:05:04;;;;;;;21.20;8.97;;;;;;;;;;4952592;28;20035;-78
2021/12/10 06:07:30;;;;;;;20.57;9.93;;;;;;;;;;4950592;29;20019;-78
2021/12/10 06:09:55;;;;;;;23.43;9.23;;;;;;;;;;4945132;28;20074;-77
2021/12/10 06:12:21;;;;;;;21.47;8.40;;;;;;;;;;4951129;28;20106;-79
2021/12/10 06:14:47;;;;;;;18.00;9.17;;;;;;;;;;4950919;28;20480;-77
2021/12/10 06:17:12;;;;;;;19.97;9.37;;;;;;;;;;4951575;28;20035;-76
2021/12/10 06:19:38;;;;;;;17.37;8.80;;;;;;;;;;4949950;28;20078;-77
2021/12/10 06:22:04;;;;;;;25.60;8.33;;;;;;;;;;4952119;28;20036;-77
2021/12/10 06:24:30;;;;;;;32.93;12.50;;;;;;;;;;4951170;28;20031;-76
2021/12/10 06:26:56;;;;;;;17.53;8.50;;;;;;;;;;4951319;28;20031;-75
2021/12/10 06:29:23;;;;;;;25.60;10.50;;;;;;;;;;4949647;29;20606;-77
2021/12/10 06:31:49;;;;;;;21.40;9.53;;;;;;;;;;4951212;28;20027;-79
2021/12/10 06:34:15;;;;;;;22.67;9.17;;;;;;;;;;4950231;29;20043;-78
2021/12/10 06:36:41;;;;;;;25.07;9.87;;;;;;;;;;4950823;28;20050;-78
2021/12/10 06:39:07;;;;;;;23.03;9.37;;;;;;;;;;4948816;28;20046;-79
2021/12/10 06:41:33;;;;;;;21.60;8.60;;;;;;;;;;4949457;28;20060;-76
2021/12/10 06:44:04;;;;;;;21.67;9.60;;;;;;;;;;4951921;28;20024;-79
2021/12/10 06:46:31;;;;;;;26.83;10.47;;;;;;;;;;4952139;28;20534;-79
2021/12/10 06:48:57;;;;;;;20.97;9.33;;;;;;;;;;4941609;28;20123;-80
2021/12/10 06:51:23;;;;;;;18.57;9.57;;;;;;;;;;4930945;29;20508;-78
2021/12/10 06:53:49;;;;;;;17.87;9.13;;;;;;;;;;4935962;29;20034;-78
2021/12/10 06:56:16;;;;;;;20.83;9.10;;;;;;;;;;4931119;29;20115;-78
2021/12/10 06:58:43;;;;;;;30.67;11.30;;;;;;;;;;4930738;29;20106;-77
2021/12/10 07:01:16;;;;;;;24.47;9.30;;;;;;;;;;4930768;29;20059;-78
2021/12/10 07:03:42;;;;;;;30.10;11.50;;;;;;;;;;4931967;29;20329;-76
2021/12/10 07:06:09;;;;;;;23.27;8.97;;;;;;;;;;4946755;29;20060;-76
2021/12/10 07:08:38;;;;;;;26.03;10.47;;;;;;;;;;4936279;29;20032;-76
2021/12/10 07:11:05;;;;;;;20.53;10.03;;;;;;;;;;4930267;29;20031;-78
2021/12/10 07:13:36;;;;;;;23.10;9.27;;;;;;;;;;4932350;29;20038;-78
2021/12/10 07:16:05;;;;;;;24.87;9.90;;;;;;;;;;4932107;29;20035;-75
2021/12/10 07:18:31;;;;;;;22.97;10.60;;;;;;;;;;4940859;29;20605;-77
2021/12/10 07:20:56;;;;;;;24.00;10.17;;;;;;;;;;4949963;29;20038;-75
2021/12/10 07:23:22;;;;;;;17.50;9.33;;;;;;;;;;4950757;28;20412;-77
2021/12/10 07:25:49;;;;;;;29.57;11.43;;;;;;;;;;4947882;29;20110;-75
2021/12/10 07:28:16;;;;;;;23.83;9.70;;;;;;;;;;4942218;28;20043;-78
2021/12/10 07:30:42;;;;;;;22.17;9.70;;;;;;;;;;4943320;29;20498;-75
2021/12/10 07:33:09;;;;;;;27.90;10.23;;;;;;;;;;4941377;28;20037;-77
2021/12/10 07:35:36;;;;;;;28.47;10.47;;;;;;;;;;4949085;29;20106;-75
2021/12/10 07:38:03;;;;;;;26.87;10.10;;;;;;;;;;4949932;29;20054;-77
2021/12/10 07:40:30;;;;;;;32.83;11.63;;;;;;;;;;4944864;28;20035;-76
2021/12/10 07:42:56;;;;;;;30.90;10.87;;;;;;;;;;4945010;28;20078;-77
2021/12/10 07:45:23;;;;;;;24.13;10.67;;;;;;;;;;4945999;28;20043;-76
2021/12/10 07:47:52;;;;;;;21.70;11.23;;;;;;;;;;4947165;29;20058;-76
2021/12/10 07:50:23;;;;;;;24.53;10.47;;;;;;;;;;4945548;28;20051;-74
2021/12/10 07:52:54;;;;;;;20.33;9.23;;;;;;;;;;4947717;29;20126;-74
2021/12/10 07:55:23;;;;;;;28.40;10.13;;;;;;;;;;4946420;29;20039;-75
2021/12/10 07:57:51;;;;;;;25.77;10.90;;;;;;;;;;4946540;29;20307;-78
2021/12/10 08:00:22;;;;;;;25.00;10.73;;;;;;;;;;4947789;28;20090;-76
2021/12/10 08:02:48;;;;;;;20.88;9.90;;;;;;;;;;4945198;29;20562;-79
2021/12/10 08:05:15;;;;;;;27.57;13.20;;;;;;;;;;4090203;28;10000972;-76
2021/12/10 08:07:41;;;;;;;22.00;10.10;;;;;;;;;;4957915;28;20093;-77
2021/12/10 08:10:09;;;;;;;23.23;10.50;;;;;;;;;;4953263;28;20114;-77
2021/12/10 08:12:35;;;;;;;23.90;10.13;;;;;;;;;;4957425;28;20042;-77
2021/12/10 08:15:03;;;;;;;21.87;9.80;;;;;;;;;;4963507;28;20603;-74
2021/12/10 08:17:28;;;;;;;21.50;9.67;;;;;;;;;;4958064;28;20038;-75
2021/12/10 08:19:55;;;;;;;27.97;10.27;;;;;;;;;;4956409;28;20046;-75
2021/12/10 08:22:21;;;;;;;29.17;11.93;;;;;;;;;;4957372;28;20034;-73
2021/12/10 08:24:47;;;;;;;24.97;9.77;;;;;;;;;;4960223;28;20078;-77
2021/12/10 08:27:14;;;;;;;22.27;9.73;;;;;;;;;;4942780;28;20043;-78
2021/12/10 08:29:43;;;;;;;30.83;13.03;;;;;;;;;;4956872;28;20039;-76
2021/12/10 08:32:12;;;;;;;23.40;10.00;;;;;;;;;;4957031;28;20058;-76
2021/12/10 08:34:39;;;;;;;24.20;10.23;;;;;;;;;;4957442;28;20034;-76
2021/12/10 08:37:05;;;;;;;20.97;8.33;;;;;;;;;;4957039;28;20062;-78
2021/12/10 08:39:31;;;;;;;25.70;11.13;;;;;;;;;;4956836;28;20035;-76
2021/12/10 08:41:58;;;;;;;21.20;10.10;;;;;;;;;;4959968;28;20061;-76
2021/12/10 08:44:24;;;;;;;26.37;10.20;;;;;;;;;;4955689;28;20039;-75
2021/12/10 08:46:51;;;;;;;20.47;7.83;;;;;;;;;;4957772;28;20094;-75
2021/12/10 08:49:17;;;;;;;22.87;10.57;;;;;;;;;;4958831;28;20038;-75
2021/12/10 08:51:54;;;;;;;24.63;9.90;;;;;;;;;;4958170;28;20045;-77
2021/12/10 08:54:24;;;;;;;21.53;9.20;;;;;;;;;;4956908;28;20031;-75
2021/12/10 08:56:50;;;;;;;19.23;8.63;;;;;;;;;;4957092;28;20034;-76
2021/12/10 08:59:16;;;;;;;22.93;10.60;;;;;;;;;;4954736;28;20034;-76
2021/12/10 09:01:46;;;;;;;19.47;9.30;;;;;;;;;;4958617;28;20101;-76
2021/12/10 09:04:13;;;;;;;22.70;9.30;;;;;;;;;;4958007;28;20243;-77
2021/12/10 09:06:43;;;;;;;24.33;8.73;;;;;;;;;;4961090;28;20054;-77
2021/12/10 09:09:12;;;;;;;18.27;8.13;;;;;;;;;;4956643;28;20097;-78
2021/12/10 09:11:39;;;;;;;18.30;8.37;;;;;;;;;;4959713;28;20057;-74
2021/12/10 09:14:07;;;;;;;21.27;9.00;;;;;;;;;;4956154;28;20034;-78
2021/12/10 09:16:35;;;;;;;19.10;8.67;;;;;;;;;;4959813;28;20035;-76
2021/12/10 09:19:04;;;;;;;18.40;8.93;;;;;;;;;;4955832;28;20153;-77
2021/12/10 09:21:31;;;;;;;21.30;9.07;;;;;;;;;;4955708;28;20034;-77
2021/12/10 09:24:03;;;;;;;19.63;8.57;;;;;;;;;;4953961;28;20054;-73
2021/12/10 09:26:30;;;;;;;16.23;8.55;;;;;;;;;;4954546;28;20524;-76
2021/12/10 09:28:58;;;;;;;19.77;8.70;;;;;;;;;;4955649;28;20034;-75
2021/12/10 09:31:24;;;;;;;21.77;9.63;;;;;;;;;;4955211;28;20033;-75
2021/12/10 09:33:56;;;;;;;19.37;8.73;;;;;;;;;;4954072;28;20486;-72
2021/12/10 09:36:22;;;;;;;17.37;8.17;;;;;;;;;;4959316;28;20574;-79
2021/12/10 09:38:48;;;;;;;20.13;9.00;;;;;;;;;;4958779;28;20027;-72
2021/12/10 09:41:15;;;;;;;20.47;9.20;;;;;;;;;;4956410;28;20368;-76
2021/12/10 09:43:42;;;;;;;22.33;10.33;;;;;;;;;;4956818;28;20043;-77
2021/12/10 09:46:09;;;;;;;21.50;10.03;;;;;;;;;;4954566;28;20027;-76
2021/12/10 09:48:35;;;;;;;19.07;8.90;;;;;;;;;;4956160;28;20042;-75
2021/12/10 09:51:07;;;;;;;15.70;8.60;;;;;;;;;;4962870;28;20023;-77
2021/12/10 09:53:34;;;;;;;22.05;9.73;;;;;;;;;;4954589;28;20418;-75
2021/12/10 09:56:00;;;;;;;21.27;8.67;;;;;;;;;;4958126;28;20699;-76
2021/12/10 09:58:26;;;;;;;17.20;7.93;;;;;;;;;;4954513;28;20035;-75
2021/12/10 10:00:57;;;;;;;22.63;8.90;;;;;;;;;;4953116;28;20034;-77
2021/12/10 10:03:26;;;;;;;18.10;8.77;;;;;;;;;;4953669;28;20035;-75
2021/12/10 10:05:53;;;;;;;22.40;8.87;;;;;;;;;;4955334;28;20545;-75
2021/12/10 10:08:25;;;;;;;17.90;8.57;;;;;;;;;;4953991;28;20557;-76
2021/12/10 10:10:55;;;;;;;23.15;9.02;;;;;;;;;;4955374;28;20122;-77
2021/12/10 10:13:26;;;;;;;17.57;9.70;;;;;;;;;;4952766;28;20035;-76
2021/12/10 10:15:57;;;;;;;19.50;8.73;;;;;;;;;;4959603;28;20056;-74
2021/12/10 10:18:24;;;;;;;19.63;9.57;;;;;;;;;;4959105;28;20071;-77
2021/12/10 10:20:56;;;;;;;19.93;9.07;;;;;;;;;;4952353;28;20118;-76
2021/12/10 10:23:23;;;;;;;17.63;8.27;;;;;;;;;;4958984;28;20026;-76
2021/12/10 10:25:52;;;;;;;20.87;9.33;;;;;;;;;;4952323;28;20644;-74
2021/12/10 10:28:18;;;;;;;18.73;8.73;;;;;;;;;;4956331;28;20513;-77
2021/12/10 10:30:53;;;;;;;19.10;9.40;;;;;;;;;;4954490;28;20109;-77
2021/12/10 10:33:19;;;;;;;21.60;8.40;;;;;;;;;;4956913;28;20114;-76
2021/12/10 10:35:50;;;;;;;20.60;9.87;;;;;;;;;;4956139;28;20649;-75
2021/12/10 10:38:19;;;;;;;22.92;9.35;;;;;;;;;;4952919;28;20093;-77
2021/12/10 10:41:04;;;;;;;20.60;9.80;;;;;;;;;;4952864;28;20034;-75
2021/12/10 10:43:30;;;;;;;21.80;10.80;;;;;;;;;;4950008;28;20038;-76
2021/12/10 10:45:57;;;;;;;17.00;8.40;;;;;;;;;;4955022;28;20027;-76
2021/12/10 10:48:24;;;;;;;17.07;8.53;;;;;;;;;;4953380;28;20114;-76
2021/12/10 10:50:52;;;;;;;54.63;13.90;;;;;;;;;;4955100;28;20141;-73
2021/12/10 10:53:21;;;;;;;18.37;8.00;;;;;;;;;;4957847;28;20031;-76
2021/12/10 10:55:58;;;;;;;15.10;7.10;;;;;;;;;;4956556;28;20035;-75
2021/12/10 10:58:30;;;;;;;15.47;8.97;;;;;;;;;;4951607;28;20465;-76
2021/12/10 11:01:24;;;;;;;15.15;8.70;;;;;;;;;;4955510;28;20030;-76
2021/12/10 11:03:57;;;;;;;18.00;8.57;;;;;;;;;;4957358;28;20122;-75
2021/12/10 11:06:30;;;;;;;17.23;9.10;;;;;;;;;;4952395;28;20027;-76
2021/12/10 11:09:08;;;;;;;16.47;8.23;;;;;;;;;;4954389;28;20061;-73
2021/12/10 11:11:40;;;;;;;21.30;8.83;;;;;;;;;;4951383;28;20034;-76
2021/12/10 11:14:15;;;;;;;19.33;9.37;;;;;;;;;;4949406;28;20023;-76
2021/12/10 11:16:45;;;;;;;18.33;9.53;;;;;;;;;;4948667;28;20057;-75
2021/12/10 11:19:27;;;;;;;19.23;9.20;;;;;;;;;;4949082;28;20409;-77
2021/12/10 11:21:57;;;;;;;16.95;9.20;;;;;;;;;;4953928;28;20031;-74
2021/12/10 11:24:30;;;;;;;15.97;8.43;;;;;;;;;;4952428;28;20494;-75
2021/12/10 11:26:57;;;;;;;15.73;8.23;;;;;;;;;;4956547;28;20072;-74
2021/12/10 11:29:45;;;;;;;24.67;11.03;;;;;;;;;;4953680;28;20030;-77
2021/12/10 11:32:37;;;;;;;18.33;8.20;;;;;;;;;;4959484;28;20023;-77
2021/12/10 11:35:18;;;;;;;13.20;6.70;;;;;;;;;;4950244;28;20039;-74
2021/12/10 11:37:43;;;;;;;18.30;8.70;;;;;;;;;;4955417;28;20507;-76
2021/12/10 11:40:49;;;;;;;17.87;8.87;;;;;;;;;;4954521;28;20843;-76
2021/12/10 11:48:44;;;;;;;19.73;8.87;;;;;;;;;;4957325;28;20038;-77
2021/12/10 11:51:11;;;;;;;22.67;9.47;;;;;;;;;;4954041;28;20057;-75
2021/12/10 11:53:47;;;;;;;19.03;8.37;;;;;;;;;;4955304;28;20395;-76
2021/12/10 11:56:18;;;;;;;17.33;9.07;;;;;;;;;;4954698;28;20510;-76
2021/12/10 11:58:44;;;;;;;18.07;9.00;;;;;;;;;;4954905;28;20054;-74
2021/12/10 12:01:18;;;;;;;19.77;9.53;;;;;;;;;;4956715;28;20062;-77
2021/12/10 12:03:44;;;;;;;20.17;8.40;;;;;;;;;;4957386;28;20125;-77
2021/12/10 12:06:16;;;;;;;19.43;8.80;;;;;;;;;;4956039;28;20461;-73
2021/12/10 12:08:41;;;;;;;19.73;8.93;;;;;;;;;;4957472;28;20039;-76
2021/12/10 12:11:08;;;;;;;16.00;9.13;;;;;;;;;;4953073;28;20856;-76
2021/12/10 12:13:50;;;;;;;15.73;8.30;;;;;;;;;;4956355;28;20038;-77
2021/12/10 12:16:20;;;;;;;18.53;8.70;;;;;;;;;;4971893;28;20339;-76
2021/12/10 12:18:53;;;;;;;16.60;8.53;;;;;;;;;;4955995;28;20058;-74
2021/12/10 12:27:15;;;;;;;15.73;7.70;;;;;;;;;;4958277;28;20046;-75
2021/12/10 12:29:55;;;;;;;14.03;7.97;;;;;;;;;;4955432;28;20130;-76
2021/12/10 12:32:24;;;;;;;14.50;7.27;;;;;;;;;;4955029;28;20467;-73
2021/12/10 12:34:51;;;;;;;15.13;7.57;;;;;;;;;;4959350;28;20034;-75
2021/12/10 12:37:19;;;;;;;13.73;7.83;;;;;;;;;;4960766;28;20100;-75
2021/12/10 12:39:57;;;;;;;12.97;7.40;;;;;;;;;;4956021;28;20106;-75
2021/12/10 12:42:48;;;;;;;13.73;7.50;;;;;;;;;;4956616;28;20031;-75
2021/12/10 12:45:23;;;;;;;15.00;7.10;;;;;;;;;;4953593;28;20116;-79
2021/12/10 12:47:53;;;;;;;16.23;7.47;;;;;;;;;;4940710;28;20046;-76
2021/12/10 12:50:31;;;;;;;19.33;7.57;;;;;;;;;;4953768;28;20026;-74
2021/12/10 12:53:02;;;;;;;17.03;7.90;;;;;;;;;;4955993;28;20034;-77
2021/12/10 12:55:38;;;;;;;15.77;6.60;;;;;;;;;;4955539;28;20038;-74
2021/12/10 12:58:09;;;;;;;17.67;7.90;;;;;;;;;;4953757;28;20276;-76
2021/12/10 13:00:41;;;;;;;11.90;7.20;;;;;;;;;;4967012;28;20059;-77
2021/12/10 13:03:40;;;;;;;14.82;7.03;;;;;;;;;;4953198;28;20039;-73
2021/12/10 13:06:12;;;;;;;14.63;6.70;;;;;;;;;;4954313;28;20339;-75
2021/12/10 13:08:42;;;;;;;12.93;6.40;;;;;;;;;;4957042;28;20053;-74
2021/12/10 13:11:25;;;;;;;12.87;7.27;;;;;;;;;;4953841;28;20033;-76
2021/12/10 13:13:59;;;;;;;;;;;;;;;;;;4953440;28;20035;-75
2021/12/10 13:16:34;;;;;;;11.80;6.33;;;;;;;;;;4957866;28;19925;-75
2021/12/10 13:19:05;;;;;;;15.37;6.77;;;;;;;;;;4951161;28;20081;-75
2021/12/10 13:21:32;;;;;;;17.80;6.73;;;;;;;;;;4952379;28;21078;-73
2021/12/10 13:23:58;;;;;;;17.10;6.83;;;;;;;;;;4956453;28;20031;-75
2021/12/10 13:26:24;;;;;;;12.33;6.30;;;;;;;;;;4955198;28;20030;-74
2021/12/10 13:28:50;;;;;;;10.03;6.20;;;;;;;;;;4954081;28;20075;-74
2021/12/10 13:31:17;;;;;;;11.13;6.63;;;;;;;;;;4955921;28;20038;-75
2021/12/10 13:33:45;;;;;;;14.03;6.67;;;;;;;;;;4958952;28;20035;-75
2021/12/10 13:36:13;;;;;;;13.43;6.60;;;;;;;;;;4961456;28;20047;-76
2021/12/10 13:38:41;;;;;;;17.40;6.97;;;;;;;;;;4959180;28;20677;-74
2021/12/10 13:41:11;;;;;;;14.13;6.47;;;;;;;;;;4956894;28;20023;-75
2021/12/10 13:43:39;;;;;;;15.10;6.97;;;;;;;;;;4957252;28;20090;-75
2021/12/10 13:46:12;;;;;;;12.03;6.93;;;;;;;;;;4957213;28;20080;-75
2021/12/10 13:48:51;;;;;;;13.20;7.17;;;;;;;;;;4956081;28;20059;-73
2021/12/10 13:51:26;;;;;;;16.77;6.93;;;;;;;;;;4953935;28;20023;-77
2021/12/10 13:54:11;;;;;;;21.90;10.60;;;;;;;;;;4961302;28;20133;-75
2021/12/10 13:56:39;;;;;;;12.90;7.03;;;;;;;;;;4953122;28;20023;-76
2021/12/10 13:59:09;;;;;;;14.10;7.10;;;;;;;;;;4957597;28;20114;-76
2021/12/10 14:01:41;;;;;;;18.53;9.00;;;;;;;;;;4953702;28;20550;-76
2021/12/10 14:04:27;;;;;;;16.67;8.23;;;;;;;;;;4953765;28;20015;-75
2021/12/10 14:07:04;;;;;;;14.43;7.23;;;;;;;;;;4959327;28;20050;-75
2021/12/10 14:09:51;;;;;;;17.57;7.63;;;;;;;;;;4956639;28;20027;-75
2021/12/10 14:12:30;;;;;;;20.63;7.80;;;;;;;;;;4959585;28;20034;-76
2021/12/10 14:15:24;;;;;;;16.00;6.87;;;;;;;;;;4956835;28;20462;-76
2021/12/10 14:18:05;;;;;;;12.37;6.73;;;;;;;;;;4956938;28;20035;-75
2021/12/10 14:20:36;;;;;;;13.50;6.87;;;;;;;;;;4959700;28;20035;-75
2021/12/10 14:23:15;;;;;;;12.23;6.20;;;;;;;;;;4952262;28;20031;-73
2021/12/10 14:25:59;;;;;;;12.77;6.53;;;;;;;;;;4957598;28;20114;-76
2021/12/10 14:28:46;;;;;;;13.17;6.30;;;;;;;;;;4960072;28;20471;-76
2021/12/10 14:31:19;;;;;;;13.60;6.70;;;;;;;;;;4952576;28;20089;-75
2021/12/10 14:33:47;;;;;;;18.87;7.87;;;;;;;;;;4940764;28;20038;-76
2021/12/10 14:36:17;;;;;;;11.50;7.40;;;;;;;;;;4955810;28;20058;-76
2021/12/10 14:38:53;;;;;;;13.87;7.07;;;;;;;;;;4954461;28;20063;-76
2021/12/10 14:41:26;;;;;;;14.63;7.20;;;;;;;;;;4951454;28;20035;-76
2021/12/10 14:43:57;;;;;;;12.93;6.60;;;;;;;;;;4964747;28;20440;-77
2021/12/10 14:46:22;;;;;;;15.00;7.20;;;;;;;;;;4969323;28;20026;-76
2021/12/10 14:49:23;;;;;;;14.40;6.50;;;;;;;;;;4960900;28;20042;-77
2021/12/10 14:52:23;;;;;;;12.40;6.90;;;;;;;;;;4966275;28;20562;-77
2021/12/10 14:55:07;;;;;;;14.77;8.33;;;;;;;;;;4961197;28;20034;-76
2021/12/10 14:57:47;;;;;;;16.90;7.90;;;;;;;;;;4953511;28;20126;-76
2021/12/10 15:01:08;;;;;;;16.67;7.27;;;;;;;;;;4973662;28;20063;-75
2021/12/10 15:03:43;;;;;;;17.13;7.80;;;;;;;;;;4984843;28;20045;-74